createdAt,value
2024-04-16T00:00:29.434Z,10.60
2024-04-16T00:02:56.238Z,10.60
2024-04-16T00:05:23.098Z,10.50
2024-04-16T00:07:52.514Z,10.70
2024-04-16T00:10:19.390Z,10.80
2024-04-16T00:12:46.188Z,10.60
2024-04-16T00:15:27.738Z,10.30
2024-04-16T00:17:55.292Z,10.60
2024-04-16T00:20:22.111Z,11.00
2024-04-16T00:22:48.859Z,11.10
2024-04-16T00:25:15.781Z,10.80
2024-04-16T00:27:44.080Z,10.60
2024-04-16T00:30:11.252Z,10.80
2024-04-16T00:32:38.401Z,10.90
2024-04-16T00:35:05.696Z,11.10
2024-04-16T00:37:32.512Z,11.10
2024-04-16T00:39:59.352Z,10.70
2024-04-16T00:42:26.148Z,10.70
2024-04-16T00:44:53.092Z,10.80
2024-04-16T00:47:19.920Z,10.70
2024-04-16T00:49:47.045Z,10.70
2024-04-16T00:52:14.426Z,10.60
2024-04-16T00:54:43.792Z,10.60
2024-04-16T00:57:10.610Z,10.50
2024-04-16T00:59:40.365Z,10.80
2024-04-16T01:02:07.403Z,11.00
2024-04-16T01:04:34.456Z,10.30
2024-04-16T01:07:01.590Z,10.20
2024-04-16T01:09:28.527Z,10.40
2024-04-16T01:11:59.499Z,10.10
2024-04-16T01:14:26.281Z,10.20
2024-04-16T01:16:53.173Z,10.30
2024-04-16T01:19:19.987Z,10.20
2024-04-16T01:21:46.797Z,10.10
2024-04-16T01:24:13.564Z,10.30
2024-04-16T01:26:40.369Z,10.40
2024-04-16T01:29:07.256Z,10.40
2024-04-16T01:31:34.998Z,10.20
2024-04-16T01:34:01.826Z,10.50
2024-04-16T01:36:28.586Z,10.60
2024-04-16T01:38:55.372Z,10.30
2024-04-16T01:41:22.144Z,10.30
2024-04-16T01:43:48.906Z,10.40
2024-04-16T01:46:15.825Z,10.60
2024-04-16T01:48:42.662Z,10.50
2024-04-16T01:51:09.404Z,10.50
2024-04-16T01:53:36.165Z,10.40
2024-04-16T01:56:02.980Z,10.70
2024-04-16T01:58:29.875Z,10.70
2024-04-16T02:01:02.998Z,10.60
2024-04-16T02:03:30.511Z,10.30
2024-04-16T02:05:59.314Z,10.50
2024-04-16T02:08:26.405Z,10.30
2024-04-16T02:10:56.545Z,10.30
2024-04-16T02:13:24.411Z,10.60
2024-04-16T02:15:51.338Z,10.70
2024-04-16T02:18:18.486Z,10.90
2024-04-16T02:20:45.522Z,10.50
2024-04-16T02:23:12.550Z,10.50
2024-04-16T02:25:46.226Z,10.50
2024-04-16T02:28:13.031Z,10.50
2024-04-16T02:30:39.896Z,10.60
2024-04-16T02:33:06.784Z,10.70
2024-04-16T02:35:33.745Z,10.60
2024-04-16T02:38:00.620Z,10.30
2024-04-16T02:40:27.400Z,10.30
2024-04-16T02:42:54.169Z,10.30
2024-04-16T02:45:23.164Z,10.40
2024-04-16T02:47:50.083Z,10.40
2024-04-16T02:50:16.913Z,10.40
2024-04-16T02:52:43.654Z,10.50
2024-04-16T02:55:10.528Z,10.60
2024-04-16T02:57:37.444Z,10.80
2024-04-16T03:00:04.817Z,10.40
2024-04-16T03:02:31.609Z,10.30
2024-04-16T03:04:58.502Z,10.40
2024-04-16T03:07:25.584Z,10.40
2024-04-16T03:09:52.375Z,10.40
2024-04-16T03:12:19.148Z,10.40
2024-04-16T03:14:45.931Z,10.60
2024-04-16T03:17:12.784Z,10.80
2024-04-16T03:19:39.676Z,10.40
2024-04-16T03:22:06.486Z,10.40
2024-04-16T03:24:33.289Z,10.20
2024-04-16T03:27:00.133Z,10.30
2024-04-16T03:29:26.888Z,10.20
2024-04-16T03:31:53.740Z,10.60
2024-04-16T03:34:20.664Z,10.60
2024-04-16T03:36:47.498Z,10.60
2024-04-16T03:39:14.556Z,10.60
2024-04-16T03:41:41.378Z,10.60
2024-04-16T03:44:08.145Z,10.40
2024-04-16T03:46:35.016Z,10.30
2024-04-16T03:49:01.859Z,10.60
2024-04-16T03:51:28.681Z,10.50
2024-04-16T03:53:55.494Z,10.50
2024-04-16T03:56:22.267Z,10.60
2024-04-16T03:59:07.515Z,10.60
2024-04-16T04:01:34.388Z,10.70
2024-04-16T04:04:01.393Z,10.60
2024-04-16T04:06:28.271Z,10.60
2024-04-16T04:08:55.072Z,10.70
2024-04-16T04:11:21.911Z,10.60
2024-04-16T04:13:48.763Z,10.70
2024-04-16T04:16:17.003Z,10.60
2024-04-16T04:18:45.983Z,10.70
2024-04-16T04:21:13.011Z,10.50
2024-04-16T04:23:39.854Z,10.50
2024-04-16T04:26:06.747Z,10.50
2024-04-16T04:28:33.537Z,10.80
2024-04-16T04:31:18.242Z,10.90
2024-04-16T04:33:45.689Z,10.70
2024-04-16T04:36:14.326Z,10.80
2024-04-16T04:38:41.474Z,10.60
2024-04-16T04:41:10.935Z,10.60
2024-04-16T04:43:37.853Z,10.70
2024-04-16T04:46:04.897Z,10.70
2024-04-16T04:48:31.745Z,10.60
2024-04-16T04:50:58.659Z,10.50
2024-04-16T04:53:26.422Z,10.70
2024-04-16T04:55:53.611Z,10.80
2024-04-16T04:58:20.457Z,10.60
2024-04-16T05:00:47.308Z,10.40
2024-04-16T05:03:14.063Z,10.70
2024-04-16T05:05:44.672Z,10.80
2024-04-16T05:08:11.478Z,10.60
2024-04-16T05:10:38.352Z,10.60
2024-04-16T05:13:05.305Z,10.40
2024-04-16T05:15:32.091Z,10.70
2024-04-16T05:17:59.052Z,10.80
2024-04-16T05:20:25.887Z,10.90
2024-04-16T05:22:52.616Z,10.90
2024-04-16T05:25:19.373Z,11.10
2024-04-16T05:27:46.177Z,10.90
2024-04-16T05:30:12.943Z,11.00
2024-04-16T05:32:40.254Z,10.90
2024-04-16T05:35:07.896Z,10.90
2024-04-16T05:37:34.803Z,10.90
2024-04-16T05:40:01.777Z,10.70
2024-04-16T05:42:28.547Z,10.80
2024-04-16T05:44:55.407Z,10.90
2024-04-16T05:47:22.217Z,10.80
2024-04-16T05:49:49.051Z,10.60
2024-04-16T05:52:15.840Z,10.70
2024-04-16T05:54:42.591Z,10.70
2024-04-16T05:57:09.343Z,10.70
2024-04-16T05:59:36.183Z,10.90
2024-04-16T06:02:03.127Z,10.90
2024-04-16T06:04:29.984Z,10.90
2024-04-16T06:06:56.778Z,10.70
2024-04-16T06:09:23.560Z,10.80
2024-04-16T06:11:50.356Z,11.10
2024-04-16T06:14:17.204Z,11.00
2024-04-16T06:16:44.236Z,10.80
2024-04-16T06:19:11.093Z,10.90
2024-04-16T06:21:37.874Z,10.70
2024-04-16T06:24:04.990Z,10.60
2024-04-16T06:26:33.140Z,10.40
2024-04-16T06:29:00.388Z,10.60
2024-04-16T06:31:27.238Z,10.90
2024-04-16T06:33:54.033Z,10.80
2024-04-16T06:36:21.102Z,10.80
2024-04-16T06:38:47.887Z,10.80
2024-04-16T06:41:14.827Z,10.80
2024-04-16T06:43:41.863Z,10.90
2024-04-16T06:46:08.700Z,11.00
2024-04-16T06:48:35.660Z,10.90
2024-04-16T06:51:02.482Z,10.90
2024-04-16T06:53:29.251Z,11.00
2024-04-16T06:56:06.147Z,11.10
2024-04-16T06:58:33.109Z,10.90
2024-04-16T07:01:00.927Z,10.70
2024-04-16T07:03:28.917Z,10.70
2024-04-16T07:05:55.807Z,11.00
2024-04-16T07:08:23.977Z,11.00
2024-04-16T07:10:50.909Z,11.00
2024-04-16T07:13:21.066Z,11.20
2024-04-16T07:15:47.845Z,11.10
2024-04-16T07:18:14.842Z,11.30
2024-04-16T07:20:48.604Z,10.90
2024-04-16T07:23:15.527Z,11.00
2024-04-16T07:25:45.926Z,11.00
2024-04-16T07:28:13.136Z,11.10
2024-04-16T07:30:40.186Z,11.20
2024-04-16T07:33:09.163Z,11.50
2024-04-16T07:35:36.484Z,11.90
2024-04-16T07:38:03.320Z,12.70
2024-04-16T07:40:30.186Z,13.30
2024-04-16T07:42:56.999Z,12.70
2024-04-16T07:45:23.774Z,12.20
2024-04-16T07:47:50.554Z,12.40
2024-04-16T07:50:18.030Z,11.90
2024-04-16T07:52:44.899Z,11.60
2024-04-16T07:55:11.758Z,11.20
2024-04-16T07:57:38.642Z,11.10
2024-04-16T08:00:06.141Z,11.30
2024-04-16T08:02:38.637Z,11.40
2024-04-16T08:05:06.451Z,11.60
2024-04-16T08:07:33.361Z,11.70
2024-04-16T08:10:02.381Z,11.60
2024-04-16T08:12:29.213Z,11.60
2024-04-16T08:14:55.959Z,11.50
2024-04-16T08:17:22.841Z,11.60
2024-04-16T08:19:49.658Z,11.80
2024-04-16T08:22:16.567Z,12.00
2024-04-16T08:24:43.581Z,11.90
2024-04-16T08:27:10.611Z,11.80
2024-04-16T08:29:37.373Z,11.90
2024-04-16T08:32:06.047Z,11.90
2024-04-16T08:34:39.709Z,11.80
2024-04-16T08:37:06.883Z,11.70
2024-04-16T08:39:35.111Z,11.70
2024-04-16T08:42:02.318Z,11.70
2024-04-16T08:44:31.029Z,11.70
2024-04-16T08:47:01.183Z,11.80
2024-04-16T08:49:31.456Z,11.90
2024-04-16T08:51:59.095Z,11.80
2024-04-16T08:54:29.931Z,11.60
2024-04-16T08:56:56.850Z,11.70
2024-04-16T08:59:24.331Z,11.90
2024-04-16T09:01:51.328Z,12.10
2024-04-16T09:04:18.329Z,12.20
2024-04-16T09:06:45.969Z,12.30
2024-04-16T09:09:12.767Z,12.30
2024-04-16T09:11:42.488Z,12.30
2024-04-16T09:14:09.864Z,12.30
2024-04-16T09:16:36.988Z,12.80
2024-04-16T09:19:08.412Z,12.80
2024-04-16T09:21:35.450Z,12.40
2024-04-16T09:24:03.504Z,12.50
2024-04-16T09:26:34.163Z,12.50
2024-04-16T09:29:01.199Z,12.50
2024-04-16T09:31:28.015Z,12.30
2024-04-16T09:34:05.811Z,12.00
2024-04-16T09:36:33.534Z,12.00
2024-04-16T09:39:00.870Z,12.50
2024-04-16T09:41:31.729Z,12.80
2024-04-16T09:44:00.115Z,12.70
2024-04-16T09:46:29.366Z,12.80
2024-04-16T09:48:58.132Z,12.70
2024-04-16T09:51:27.102Z,12.50
2024-04-16T09:53:54.734Z,12.60
2024-04-16T09:56:22.163Z,12.70
2024-04-16T09:58:52.173Z,12.70
2024-04-16T10:01:21.344Z,12.50
2024-04-16T10:03:50.006Z,12.60
2024-04-16T10:06:16.812Z,12.40
2024-04-16T10:08:43.663Z,12.40
2024-04-16T10:11:17.279Z,12.60
2024-04-16T10:13:49.063Z,12.70
2024-04-16T10:16:19.578Z,13.10
2024-04-16T10:18:58.838Z,13.30
2024-04-16T10:21:29.195Z,13.50
2024-04-16T10:24:10.329Z,14.30
2024-04-16T10:26:43.200Z,13.90
2024-04-16T10:29:24.307Z,13.40
2024-04-16T10:31:55.739Z,13.70
2024-04-16T10:34:24.585Z,13.40
2024-04-16T10:36:52.220Z,13.20
2024-04-16T10:39:19.360Z,13.30
2024-04-16T10:41:53.672Z,13.20
2024-04-16T10:44:21.739Z,13.60
2024-04-16T10:46:50.849Z,14.00
2024-04-16T10:49:19.311Z,13.90
2024-04-16T10:51:46.214Z,14.40
2024-04-16T10:54:13.095Z,14.10
2024-04-16T10:56:40.534Z,13.40
2024-04-16T10:59:07.834Z,13.40
2024-04-16T11:01:38.457Z,13.60
2024-04-16T11:04:09.100Z,13.80
2024-04-16T11:06:35.902Z,13.70
2024-04-16T11:09:04.964Z,13.80
2024-04-16T11:11:35.412Z,14.00
2024-04-16T11:14:02.709Z,14.00
2024-04-16T11:16:29.708Z,13.80
2024-04-16T11:19:00.622Z,13.80
2024-04-16T11:21:33.324Z,13.90
2024-04-16T11:24:00.609Z,13.80
2024-04-16T11:26:28.573Z,13.70
2024-04-16T11:28:55.382Z,13.80
2024-04-16T11:31:22.317Z,13.80
2024-04-16T11:33:49.660Z,13.80
2024-04-16T11:36:19.950Z,13.90
2024-04-16T11:38:46.794Z,14.20
2024-04-16T11:41:16.044Z,14.20
2024-04-16T11:43:44.039Z,14.10
2024-04-16T11:46:13.282Z,14.10
2024-04-16T11:48:40.392Z,14.10
2024-04-16T11:51:11.422Z,14.10
2024-04-16T11:53:39.382Z,14.10
2024-04-16T11:56:08.524Z,14.50
2024-04-16T11:58:36.579Z,14.70
2024-04-16T12:01:03.532Z,14.70
2024-04-16T12:03:30.423Z,14.70
2024-04-16T12:05:57.284Z,14.20
2024-04-16T12:08:24.681Z,14.00
2024-04-16T12:10:51.538Z,13.80
2024-04-16T12:13:18.428Z,13.80
2024-04-16T12:15:45.201Z,13.90
2024-04-16T12:18:12.000Z,13.80
2024-04-16T12:20:38.792Z,13.80
2024-04-16T12:23:05.586Z,13.90
2024-04-16T12:25:32.403Z,14.10
2024-04-16T12:27:59.288Z,14.10
2024-04-16T12:30:26.164Z,14.20
2024-04-16T12:35:22.807Z,14.20
2024-04-16T12:37:49.605Z,14.10
2024-04-16T12:40:18.012Z,14.10
2024-04-16T12:42:44.877Z,14.30
2024-04-16T12:45:11.661Z,14.20
2024-04-16T12:47:38.553Z,14.30
2024-04-16T12:50:06.359Z,14.50
2024-04-16T12:52:33.226Z,14.70
2024-04-16T12:55:00.032Z,14.30
2024-04-16T12:57:26.823Z,14.10
2024-04-16T12:59:53.764Z,14.00
2024-04-16T13:02:21.105Z,14.10
2024-04-16T13:04:50.106Z,14.20
2024-04-16T13:07:19.008Z,14.40
2024-04-16T13:09:45.990Z,14.50
2024-04-16T13:12:12.781Z,14.40
2024-04-16T13:14:39.605Z,14.60
2024-04-16T13:17:06.622Z,14.90
2024-04-16T13:19:33.369Z,14.80
2024-04-16T13:22:00.808Z,14.70
2024-04-16T13:24:27.570Z,14.90
2024-04-16T13:26:54.528Z,15.20
2024-04-16T13:29:23.455Z,15.00
2024-04-16T13:31:51.592Z,14.60
2024-04-16T13:34:18.529Z,14.30
2024-04-16T13:36:45.331Z,14.10
2024-04-16T13:39:13.517Z,13.90
2024-04-16T13:41:40.298Z,13.90
2024-04-16T13:44:07.179Z,13.70
2024-04-16T13:46:34.131Z,13.80
2024-04-16T13:49:00.936Z,13.80
2024-04-16T13:51:27.765Z,13.60
2024-04-16T13:53:54.528Z,13.90
2024-04-16T13:56:21.326Z,13.90
2024-04-16T13:58:48.140Z,13.90
2024-04-16T14:01:15.040Z,13.80
2024-04-16T14:03:42.027Z,13.90
2024-04-16T14:06:08.836Z,13.80
2024-04-16T14:08:36.570Z,13.80
2024-04-16T14:11:03.803Z,13.80
2024-04-16T14:13:30.772Z,13.90
2024-04-16T14:15:57.582Z,13.80
2024-04-16T14:18:24.541Z,13.80
2024-04-16T14:20:51.585Z,13.80
2024-04-16T14:23:18.432Z,13.80
2024-04-16T14:25:45.346Z,13.90
2024-04-16T14:28:12.206Z,13.90
2024-04-16T14:30:38.984Z,13.90
2024-04-16T14:33:06.225Z,13.90
2024-04-16T14:35:33.256Z,13.90
2024-04-16T14:38:00.244Z,13.80
2024-04-16T14:40:27.191Z,13.90
2024-04-16T14:42:54.020Z,13.80
2024-04-16T14:45:23.988Z,13.80
2024-04-16T14:47:51.453Z,13.80
2024-04-16T14:50:18.930Z,13.80
2024-04-16T14:52:46.979Z,13.80
2024-04-16T14:55:14.035Z,13.90
2024-04-16T14:57:40.873Z,13.90
2024-04-16T15:00:08.082Z,13.90
2024-04-16T15:02:34.911Z,13.90
2024-04-16T15:05:01.799Z,13.90
2024-04-16T15:07:28.616Z,13.90
2024-04-16T15:09:55.457Z,14.00
2024-04-16T15:12:22.227Z,13.90
2024-04-16T15:14:49.073Z,13.80
2024-04-16T15:17:16.286Z,13.60
2024-04-16T15:19:43.261Z,13.60
2024-04-16T15:22:10.192Z,13.50
2024-04-16T15:24:37.055Z,13.50
2024-04-16T15:27:04.707Z,13.50
2024-04-16T15:29:31.553Z,13.50
2024-04-16T15:31:58.436Z,13.40
2024-04-16T15:34:25.401Z,13.50
2024-04-16T15:36:53.145Z,13.40
2024-04-16T15:39:19.934Z,13.50
2024-04-16T15:41:47.493Z,13.50
2024-04-16T15:44:14.345Z,13.50
2024-04-16T15:46:41.264Z,13.50
2024-04-16T15:49:08.075Z,13.50
2024-04-16T15:51:34.900Z,13.60
2024-04-16T15:54:01.693Z,13.50
2024-04-16T15:56:28.470Z,13.50
2024-04-16T15:58:55.299Z,13.50
2024-04-16T16:01:22.371Z,13.60
2024-04-16T16:03:50.951Z,13.60
2024-04-16T16:06:17.800Z,13.60
2024-04-16T16:08:44.824Z,13.70
2024-04-16T16:11:11.743Z,13.60
2024-04-16T16:13:38.553Z,13.60
2024-04-16T16:16:05.876Z,13.60
2024-04-16T16:18:32.747Z,13.60
2024-04-16T16:21:00.651Z,13.60
2024-04-16T16:23:27.491Z,13.60
2024-04-16T16:25:54.480Z,13.60
2024-04-16T16:28:21.356Z,13.60
2024-04-16T16:30:49.494Z,13.60
2024-04-16T16:33:16.331Z,13.60
2024-04-16T16:35:43.132Z,13.50
2024-04-16T16:38:09.960Z,13.50
2024-04-16T16:40:36.820Z,13.50
2024-04-16T16:43:03.699Z,13.60
2024-04-16T16:45:30.487Z,13.60
2024-04-16T16:47:57.920Z,13.60
2024-04-16T16:50:26.059Z,13.60
2024-04-16T16:52:52.928Z,13.70
2024-04-16T16:55:19.784Z,13.60
2024-04-16T16:57:46.625Z,13.60
2024-04-16T17:00:13.661Z,13.60
2024-04-16T17:02:40.490Z,13.70
2024-04-16T17:05:07.488Z,13.70
2024-04-16T17:07:34.356Z,13.70
2024-04-16T17:10:01.190Z,13.70
2024-04-16T17:12:28.217Z,13.70
2024-04-16T17:14:55.434Z,13.80
2024-04-16T17:17:22.302Z,13.70
2024-04-16T17:19:49.195Z,13.70
2024-04-16T17:22:16.061Z,13.70
2024-04-16T17:24:44.421Z,13.70
2024-04-16T17:27:12.480Z,13.60
2024-04-16T17:29:39.285Z,13.60
2024-04-16T17:32:06.572Z,13.50
2024-04-16T17:34:33.451Z,13.50
2024-04-16T17:37:00.308Z,13.50
2024-04-16T17:39:28.305Z,13.50
2024-04-16T17:41:55.128Z,13.50
2024-04-16T17:44:21.982Z,13.50
2024-04-16T17:46:51.145Z,13.50
2024-04-16T17:49:18.065Z,13.40
2024-04-16T17:51:44.959Z,13.50
2024-04-16T17:54:11.775Z,13.50
2024-04-16T17:56:38.524Z,13.40
2024-04-16T17:59:05.403Z,13.40
2024-04-16T18:01:32.787Z,13.50
2024-04-16T18:04:02.656Z,13.40
2024-04-16T18:06:29.899Z,13.40
2024-04-16T18:08:56.800Z,13.30
2024-04-16T18:11:23.663Z,13.30
2024-04-16T18:13:52.377Z,13.20
2024-04-16T18:16:19.287Z,13.30
2024-04-16T18:18:47.033Z,13.30
2024-04-16T18:21:14.205Z,13.40
2024-04-16T18:23:41.069Z,13.50
2024-04-16T18:26:07.845Z,13.50
2024-04-16T18:28:36.211Z,13.40
2024-04-16T18:31:03.070Z,13.50
2024-04-16T18:33:30.038Z,13.40
2024-04-16T18:35:56.889Z,13.60
2024-04-16T18:38:27.491Z,14.50
2024-04-16T18:40:57.931Z,14.60
2024-04-16T18:43:25.034Z,14.80
2024-04-16T18:45:52.170Z,14.80
2024-04-16T18:48:19.205Z,14.50
2024-04-16T18:50:47.305Z,14.10
2024-04-16T18:53:14.135Z,14.50
2024-04-16T18:55:41.292Z,14.60
2024-04-16T18:58:08.146Z,14.50
2024-04-16T19:00:36.611Z,14.50
2024-04-16T19:03:03.571Z,14.30
2024-04-16T19:05:30.372Z,14.40
2024-04-16T19:07:59.350Z,14.40
2024-04-16T19:10:26.255Z,14.20
2024-04-16T19:12:53.015Z,14.20
2024-04-16T19:15:19.830Z,14.00
2024-04-16T19:17:46.633Z,14.00
2024-04-16T19:20:13.804Z,13.80
2024-04-16T19:22:40.742Z,13.80
2024-04-16T19:25:07.884Z,13.70
2024-04-16T19:27:34.857Z,13.70
2024-04-16T19:30:01.644Z,13.60
2024-04-16T19:32:32.375Z,13.60
2024-04-16T19:34:59.689Z,13.70
2024-04-16T19:37:26.508Z,13.70
2024-04-16T19:39:53.342Z,13.60
2024-04-16T19:42:20.238Z,13.50
2024-04-16T19:44:47.126Z,13.50
2024-04-16T19:47:14.332Z,13.50
2024-04-16T19:49:41.136Z,13.50
2024-04-16T19:52:08.011Z,13.50
2024-04-16T19:54:34.776Z,13.70
2024-04-16T19:57:05.101Z,13.90
2024-04-16T19:59:36.050Z,13.70
2024-04-16T20:02:02.868Z,13.60
2024-04-16T20:04:30.065Z,13.50
2024-04-16T20:06:56.893Z,13.50
2024-04-16T20:09:23.688Z,13.50
2024-04-16T20:11:50.542Z,13.50
2024-04-16T20:14:17.346Z,13.50
2024-04-16T20:16:44.280Z,13.60
2024-04-16T20:19:11.204Z,13.60
2024-04-16T20:21:38.052Z,13.60
2024-04-16T20:24:05.027Z,13.60
2024-04-16T20:26:31.827Z,13.60
2024-04-16T20:28:59.543Z,13.80
2024-04-16T20:31:26.390Z,13.80
2024-04-16T20:33:54.416Z,13.70
2024-04-16T20:36:21.186Z,13.80
2024-04-16T20:38:47.987Z,13.70
2024-04-16T20:41:14.762Z,13.60
2024-04-16T20:43:41.589Z,13.70
2024-04-16T20:46:10.495Z,13.60
2024-04-16T20:48:37.665Z,13.60
2024-04-16T20:51:06.043Z,13.60
2024-04-16T20:53:33.312Z,13.80
2024-04-16T20:56:00.827Z,13.70
2024-04-16T20:58:28.002Z,13.70
2024-04-16T21:00:55.085Z,13.90
2024-04-16T21:03:22.169Z,13.90
2024-04-16T21:05:51.348Z,13.80
2024-04-16T21:08:18.148Z,13.70
2024-04-16T21:10:46.324Z,13.60
2024-04-16T21:13:13.211Z,13.70
2024-04-16T21:15:41.020Z,13.80
2024-04-16T21:18:07.962Z,13.70
2024-04-16T21:20:34.800Z,13.50
2024-04-16T21:23:01.547Z,13.40
2024-04-16T21:25:28.770Z,13.30
2024-04-16T21:27:55.638Z,13.30
2024-04-16T21:30:22.430Z,13.30
2024-04-16T21:32:51.159Z,13.30
2024-04-16T21:35:18.198Z,13.30
2024-04-16T21:37:44.993Z,13.20
2024-04-16T21:40:11.860Z,13.30
2024-04-16T21:42:38.631Z,13.30
2024-04-16T21:45:05.720Z,13.20
2024-04-16T21:47:32.648Z,13.20
2024-04-16T21:49:59.642Z,13.20
2024-04-16T21:52:26.472Z,13.20
2024-04-16T21:54:53.231Z,13.20
2024-04-16T21:57:20.087Z,13.10
2024-04-16T21:59:46.886Z,13.20
2024-04-16T22:02:13.690Z,13.20
2024-04-16T22:04:40.465Z,13.20
2024-04-16T22:07:07.955Z,13.30
2024-04-16T22:09:34.770Z,13.20
2024-04-16T22:12:01.715Z,13.20
2024-04-16T22:14:28.805Z,13.20
2024-04-16T22:16:55.603Z,13.30
2024-04-16T22:19:22.549Z,13.30
2024-04-16T22:21:49.385Z,13.30
2024-04-16T22:24:16.169Z,13.20
2024-04-16T22:26:43.057Z,13.20
2024-04-16T22:29:09.858Z,13.20
2024-04-16T22:31:36.694Z,13.10
2024-04-16T22:34:03.486Z,13.10
2024-04-16T22:36:30.459Z,13.10
2024-04-16T22:38:57.226Z,13.10
2024-04-16T22:41:23.982Z,13.10
2024-04-16T22:43:50.866Z,13.20
2024-04-16T22:46:17.746Z,13.20
2024-04-16T22:48:44.608Z,13.20
2024-04-16T22:51:13.210Z,13.20
2024-04-16T22:53:39.936Z,13.20
2024-04-16T22:56:06.779Z,13.20
2024-04-16T22:58:33.701Z,13.10
2024-04-16T23:01:00.565Z,13.10
2024-04-16T23:03:27.585Z,13.00
2024-04-16T23:05:54.487Z,13.10
2024-04-16T23:08:21.274Z,13.10
2024-04-16T23:10:48.172Z,13.10
2024-04-16T23:13:14.989Z,13.00
2024-04-16T23:15:41.762Z,13.00
2024-04-16T23:18:08.588Z,13.00
2024-04-16T23:20:35.489Z,12.90
2024-04-16T23:23:03.314Z,12.90
2024-04-16T23:25:30.154Z,12.90
2024-04-16T23:27:56.982Z,12.90
2024-04-16T23:30:23.782Z,12.90
2024-04-16T23:32:50.729Z,12.90
2024-04-16T23:35:17.625Z,12.90
2024-04-16T23:37:44.458Z,12.90
2024-04-16T23:40:11.615Z,12.80
2024-04-16T23:42:38.730Z,12.80
2024-04-16T23:45:06.205Z,12.70
2024-04-16T23:47:33.078Z,12.80
2024-04-16T23:50:00.326Z,12.90
2024-04-16T23:52:29.950Z,12.80
2024-04-16T23:54:57.028Z,12.70
2024-04-16T23:57:23.799Z,12.70
2024-04-16T23:59:50.573Z,12.80
